sensor_id;sensor_type;location;lat;lon;timestamp;pressure;altitude;pressure_sealevel;temperature;humidity
4586;BME280;2305;50.118;8.952;2023-05-21T00:00:55;100364.47;;;16.65;100.00
4586;BME280;2305;50.118;8.952;2023-05-21T00:03:28;100363.81;;;16.63;100.00
4586;BME280;2305;50.118;8.952;2023-05-21T00:05:57;100360.97;;;16.65;100.00
4586;BME280;2305;50.118;8.952;2023-05-21T00:08:29;100363.81;;;16.63;100.00
4586;BME280;2305;50.118;8.952;2023-05-21T00:10:57;100366.78;;;16.60;100.00
4586;BME280;2305;50.118;8.952;2023-05-21T00:13:26;100368.78;;;16.58;100.00
4586;BME280;2305;50.118;8.952;2023-05-21T00:15:54;100362.81;;;16.56;100.00
4586;BME280;2305;50.118;8.952;2023-05-21T00:18:24;100371.78;;;16.55;100.00
4586;BME280;2305;50.118;8.952;2023-05-21T00:20:53;100363.81;;;16.55;100.00
4586;BME280;2305;50.118;8.952;2023-05-21T00:23:22;100361.44;;;16.52;100.00
4586;BME280;2305;50.118;8.952;2023-05-21T00:25:55;100359.63;;;16.53;100.00
4586;BME280;2305;50.118;8.952;2023-05-21T00:28:26;100364.44;;;16.49;100.00
4586;BME280;2305;50.118;8.952;2023-05-21T00:30:55;100352.16;;;16.48;100.00
4586;BME280;2305;50.118;8.952;2023-05-21T00:33:25;100351.97;;;16.50;100.00
4586;BME280;2305;50.118;8.952;2023-05-21T00:35:55;100355.00;;;16.63;100.00
4586;BME280;2305;50.118;8.952;2023-05-21T00:38:26;100342.81;;;16.52;100.00
4586;BME280;2305;50.118;8.952;2023-05-21T00:41:00;100340.00;;;16.46;100.00
4586;BME280;2305;50.118;8.952;2023-05-21T00:43:29;100339.00;;;16.47;100.00
4586;BME280;2305;50.118;8.952;2023-05-21T00:45:58;100335.97;;;16.42;100.00
4586;BME280;2305;50.118;8.952;2023-05-21T00:48:28;100330.81;;;16.40;100.00
4586;BME280;2305;50.118;8.952;2023-05-21T00:50:58;100332.81;;;16.38;100.00
4586;BME280;2305;50.118;8.952;2023-05-21T00:53:29;100327.50;;;16.38;100.00
4586;BME280;2305;50.118;8.952;2023-05-21T00:56:02;100323.47;;;16.34;100.00
4586;BME280;2305;50.118;8.952;2023-05-21T00:58:33;100332.59;;;16.32;100.00
4586;BME280;2305;50.118;8.952;2023-05-21T01:01:05;100331.25;;;16.28;100.00
4586;BME280;2305;50.118;8.952;2023-05-21T01:03:39;100318.09;;;16.26;100.00
4586;BME280;2305;50.118;8.952;2023-05-21T01:06:10;100319.28;;;16.24;100.00
4586;BME280;2305;50.118;8.952;2023-05-21T01:08:46;100316.63;;;16.24;100.00
4586;BME280;2305;50.118;8.952;2023-05-21T01:11:18;100318.28;;;16.25;100.00
4586;BME280;2305;50.118;8.952;2023-05-21T01:13:50;100318.91;;;16.19;100.00
4586;BME280;2305;50.118;8.952;2023-05-21T01:16:19;100318.06;;;16.18;100.00
4586;BME280;2305;50.118;8.952;2023-05-21T01:18:49;100311.09;;;16.17;100.00
4586;BME280;2305;50.118;8.952;2023-05-21T01:21:24;100310.59;;;16.14;100.00
4586;BME280;2305;50.118;8.952;2023-05-21T01:23:57;100315.25;;;16.12;100.00
4586;BME280;2305;50.118;8.952;2023-05-21T01:26:28;100305.59;;;16.11;100.00
4586;BME280;2305;50.118;8.952;2023-05-21T01:29:05;100311.72;;;16.11;100.00
4586;BME280;2305;50.118;8.952;2023-05-21T01:31:42;100303.09;;;16.09;100.00
4586;BME280;2305;50.118;8.952;2023-05-21T01:34:19;100301.28;;;16.10;100.00
4586;BME280;2305;50.118;8.952;2023-05-21T01:36:56;100285.63;;;16.07;100.00
4586;BME280;2305;50.118;8.952;2023-05-21T01:39:33;100293.63;;;16.07;100.00
4586;BME280;2305;50.118;8.952;2023-05-21T01:42:08;100288.97;;;16.09;100.00
4586;BME280;2305;50.118;8.952;2023-05-21T01:44:38;100293.47;;;16.08;100.00
4586;BME280;2305;50.118;8.952;2023-05-21T01:47:08;100290.81;;;16.08;100.00
4586;BME280;2305;50.118;8.952;2023-05-21T01:49:37;100289.81;;;16.09;100.00
4586;BME280;2305;50.118;8.952;2023-05-21T01:52:06;100300.28;;;16.11;100.00
4586;BME280;2305;50.118;8.952;2023-05-21T01:54:36;100282.69;;;16.10;100.00
4586;BME280;2305;50.118;8.952;2023-05-21T01:57:08;100286.16;;;16.10;100.00
4586;BME280;2305;50.118;8.952;2023-05-21T01:59:38;100283.19;;;16.13;100.00
4586;BME280;2305;50.118;8.952;2023-05-21T02:02:08;100287.81;;;16.11;100.00
4586;BME280;2305;50.118;8.952;2023-05-21T02:04:37;100281.81;;;16.09;100.00
4586;BME280;2305;50.118;8.952;2023-05-21T02:07:07;100286.00;;;16.12;100.00
4586;BME280;2305;50.118;8.952;2023-05-21T02:09:37;100286.81;;;16.12;100.00
4586;BME280;2305;50.118;8.952;2023-05-21T02:12:07;100284.50;;;16.09;100.00
4586;BME280;2305;50.118;8.952;2023-05-21T02:14:35;100284.16;;;16.12;100.00
4586;BME280;2305;50.118;8.952;2023-05-21T02:17:04;100284.34;;;16.11;100.00
4586;BME280;2305;50.118;8.952;2023-05-21T02:19:33;100281.69;;;16.11;100.00
4586;BME280;2305;50.118;8.952;2023-05-21T02:22:02;100275.66;;;16.09;100.00
4586;BME280;2305;50.118;8.952;2023-05-21T02:24:30;100280.97;;;16.09;100.00
4586;BME280;2305;50.118;8.952;2023-05-21T02:27:06;100281.16;;;16.07;100.00
4586;BME280;2305;50.118;8.952;2023-05-21T02:29:37;100282.16;;;16.06;100.00
4586;BME280;2305;50.118;8.952;2023-05-21T02:32:07;100280.16;;;16.08;100.00
4586;BME280;2305;50.118;8.952;2023-05-21T02:34:38;100278.00;;;16.04;100.00
4586;BME280;2305;50.118;8.952;2023-05-21T02:37:08;100271.84;;;16.03;100.00
4586;BME280;2305;50.118;8.952;2023-05-21T02:39:42;100280.97;;;16.01;100.00
4586;BME280;2305;50.118;8.952;2023-05-21T02:42:11;100280.47;;;16.05;100.00
4586;BME280;2305;50.118;8.952;2023-05-21T02:44:42;100279.00;;;16.03;100.00
4586;BME280;2305;50.118;8.952;2023-05-21T02:47:12;100288.28;;;15.99;100.00
4586;BME280;2305;50.118;8.952;2023-05-21T02:49:40;100283.09;;;15.97;100.00
4586;BME280;2305;50.118;8.952;2023-05-21T02:52:11;100282.13;;;15.98;100.00
4586;BME280;2305;50.118;8.952;2023-05-21T02:54:44;100278.31;;;16.01;100.00
4586;BME280;2305;50.118;8.952;2023-05-21T02:57:15;100281.97;;;16.00;100.00
4586;BME280;2305;50.118;8.952;2023-05-21T02:59:44;100278.63;;;15.98;100.00
4586;BME280;2305;50.118;8.952;2023-05-21T03:02:16;100271.50;;;15.98;100.00
4586;BME280;2305;50.118;8.952;2023-05-21T03:04:47;100285.75;;;15.97;100.00
4586;BME280;2305;50.118;8.952;2023-05-21T03:07:17;100283.28;;;15.96;100.00
4586;BME280;2305;50.118;8.952;2023-05-21T03:09:46;100275.63;;;15.93;100.00
4586;BME280;2305;50.118;8.952;2023-05-21T03:12:18;100280.78;;;15.94;100.00
4586;BME280;2305;50.118;8.952;2023-05-21T03:14:49;100279.13;;;15.93;100.00
4586;BME280;2305;50.118;8.952;2023-05-21T03:17:20;100269.31;;;15.94;100.00
4586;BME280;2305;50.118;8.952;2023-05-21T03:19:49;100273.31;;;15.98;100.00
4586;BME280;2305;50.118;8.952;2023-05-21T03:22:21;100277.31;;;16.02;100.00
4586;BME280;2305;50.118;8.952;2023-05-21T03:24:49;100271.31;;;16.00;100.00
4586;BME280;2305;50.118;8.952;2023-05-21T03:27:19;100272.97;;;16.01;100.00
4586;BME280;2305;50.118;8.952;2023-05-21T03:29:48;100271.03;;;16.03;100.00
4586;BME280;2305;50.118;8.952;2023-05-21T03:32:16;100270.03;;;16.04;100.00
4586;BME280;2305;50.118;8.952;2023-05-21T03:34:48;100271.84;;;16.03;100.00
4586;BME280;2305;50.118;8.952;2023-05-21T03:37:17;100270.31;;;16.01;100.00
4586;BME280;2305;50.118;8.952;2023-05-21T03:39:51;100265.72;;;16.03;100.00
4586;BME280;2305;50.118;8.952;2023-05-21T03:42:22;100266.84;;;16.00;100.00
4586;BME280;2305;50.118;8.952;2023-05-21T03:44:54;100258.69;;;16.02;100.00
4586;BME280;2305;50.118;8.952;2023-05-21T03:47:58;100265.72;;;16.03;100.00
4586;BME280;2305;50.118;8.952;2023-05-21T03:50:29;100258.69;;;16.02;100.00
4586;BME280;2305;50.118;8.952;2023-05-21T03:53:03;100264.38;;;16.07;100.00
4586;BME280;2305;50.118;8.952;2023-05-21T03:55:31;100264.22;;;16.08;100.00
4586;BME280;2305;50.118;8.952;2023-05-21T03:58:05;100267.03;;;16.07;100.00
4586;BME280;2305;50.118;8.952;2023-05-21T04:00:33;100263.72;;;16.05;100.00
4586;BME280;2305;50.118;8.952;2023-05-21T04:03:05;100271.34;;;16.08;100.00
4586;BME280;2305;50.118;8.952;2023-05-21T04:05:33;100261.06;;;16.05;100.00
4586;BME280;2305;50.118;8.952;2023-05-21T04:08:02;100269.84;;;16.05;100.00
4586;BME280;2305;50.118;8.952;2023-05-21T04:10:30;100267.88;;;16.07;100.00
4586;BME280;2305;50.118;8.952;2023-05-21T04:13:01;100267.38;;;16.04;100.00
4586;BME280;2305;50.118;8.952;2023-05-21T04:15:31;100269.03;;;16.05;100.00
4586;BME280;2305;50.118;8.952;2023-05-21T04:18:01;100263.38;;;16.08;100.00
4586;BME280;2305;50.118;8.952;2023-05-21T04:20:29;100271.84;;;16.11;100.00
4586;BME280;2305;50.118;8.952;2023-05-21T04:22:58;100273.72;;;16.19;100.00
4586;BME280;2305;50.118;8.952;2023-05-21T04:25:27;100270.56;;;16.15;100.00
4586;BME280;2305;50.118;8.952;2023-05-21T04:27:57;100268.91;;;16.14;100.00
4586;BME280;2305;50.118;8.952;2023-05-21T04:30:33;100263.41;;;16.16;100.00
4586;BME280;2305;50.118;8.952;2023-05-21T04:33:05;100277.38;;;16.18;100.00
4586;BME280;2305;50.118;8.952;2023-05-21T04:35:35;100272.72;;;16.20;100.00
4586;BME280;2305;50.118;8.952;2023-05-21T04:38:04;100277.72;;;16.23;100.00
4586;BME280;2305;50.118;8.952;2023-05-21T04:40:32;100267.75;;;16.25;100.00
4586;BME280;2305;50.118;8.952;2023-05-21T04:43:02;100274.25;;;16.30;100.00
4586;BME280;2305;50.118;8.952;2023-05-21T04:45:33;100275.41;;;16.28;100.00
4586;BME280;2305;50.118;8.952;2023-05-21T04:48:03;100272.44;;;16.31;100.00
4586;BME280;2305;50.118;8.952;2023-05-21T04:50:32;100281.06;;;16.33;100.00
4586;BME280;2305;50.118;8.952;2023-05-21T04:53:01;100273.09;;;16.33;100.00
4586;BME280;2305;50.118;8.952;2023-05-21T04:55:31;100275.75;;;16.33;100.00
4586;BME280;2305;50.118;8.952;2023-05-21T04:58:02;100278.06;;;16.36;100.00
4586;BME280;2305;50.118;8.952;2023-05-21T05:00:33;100272.47;;;16.39;100.00
4586;BME280;2305;50.118;8.952;2023-05-21T05:03:04;100272.66;;;16.45;100.00
4586;BME280;2305;50.118;8.952;2023-05-21T05:05:34;100279.47;;;16.48;100.00
4586;BME280;2305;50.118;8.952;2023-05-21T05:08:05;100278.81;;;16.54;100.00
4586;BME280;2305;50.118;8.952;2023-05-21T05:10:34;100278.34;;;16.58;100.00
4586;BME280;2305;50.118;8.952;2023-05-21T05:13:03;100282.34;;;16.62;100.00
4586;BME280;2305;50.118;8.952;2023-05-21T05:15:36;100276.19;;;16.70;100.00
4586;BME280;2305;50.118;8.952;2023-05-21T05:18:05;100275.69;;;16.74;100.00
4586;BME280;2305;50.118;8.952;2023-05-21T05:20:35;100280.19;;;16.82;100.00
4586;BME280;2305;50.118;8.952;2023-05-21T05:23:04;100286.81;;;16.86;100.00
4586;BME280;2305;50.118;8.952;2023-05-21T05:25:35;100276.69;;;16.89;100.00
4586;BME280;2305;50.118;8.952;2023-05-21T05:28:03;100282.69;;;16.99;100.00
4586;BME280;2305;50.118;8.952;2023-05-21T05:30:36;100272.03;;;16.99;100.00
4586;BME280;2305;50.118;8.952;2023-05-21T05:33:17;100274.34;;;17.02;100.00
4586;BME280;2305;50.118;8.952;2023-05-21T05:35:45;100278.84;;;17.10;100.00
4586;BME280;2305;50.118;8.952;2023-05-21T05:38:14;100272.69;;;17.17;100.00
4586;BME280;2305;50.118;8.952;2023-05-21T05:40:42;100274.81;;;17.22;100.00
4586;BME280;2305;50.118;8.952;2023-05-21T05:43:12;100269.19;;;17.25;100.00
4586;BME280;2305;50.118;8.952;2023-05-21T05:45:44;100272.16;;;17.30;100.00
4586;BME280;2305;50.118;8.952;2023-05-21T05:48:14;100269.66;;;17.36;100.00
4586;BME280;2305;50.118;8.952;2023-05-21T05:50:45;100273.00;;;17.46;100.00
4586;BME280;2305;50.118;8.952;2023-05-21T05:53:13;100273.69;;;17.48;100.00
4586;BME280;2305;50.118;8.952;2023-05-21T05:55:44;100274.81;;;17.54;100.00
4586;BME280;2305;50.118;8.952;2023-05-21T05:58:14;100272.47;;;17.59;100.00
4586;BME280;2305;50.118;8.952;2023-05-21T06:01:19;100268.13;;;17.58;100.00
4586;BME280;2305;50.118;8.952;2023-05-21T06:03:48;100267.81;;;17.61;100.00
4586;BME280;2305;50.118;8.952;2023-05-21T06:06:17;100269.75;;;17.75;100.00
4586;BME280;2305;50.118;8.952;2023-05-21T06:08:49;100273.25;;;17.75;100.00
4586;BME280;2305;50.118;8.952;2023-05-21T06:11:18;100267.41;;;17.80;100.00
4586;BME280;2305;50.118;8.952;2023-05-21T06:13:52;100269.88;;;17.81;100.00
4586;BME280;2305;50.118;8.952;2023-05-21T06:16:23;100267.03;;;17.91;100.00
4586;BME280;2305;50.118;8.952;2023-05-21T06:18:53;100262.50;;;17.99;100.00
4586;BME280;2305;50.118;8.952;2023-05-21T06:21:21;100261.31;;;18.02;100.00
4586;BME280;2305;50.118;8.952;2023-05-21T06:23:55;100259.16;;;18.05;100.00
4586;BME280;2305;50.118;8.952;2023-05-21T06:26:24;100258.41;;;18.11;100.00
4586;BME280;2305;50.118;8.952;2023-05-21T06:28:52;100263.06;;;18.17;100.00
4586;BME280;2305;50.118;8.952;2023-05-21T06:31:24;100264.03;;;18.24;100.00
4586;BME280;2305;50.118;8.952;2023-05-21T06:33:54;100262.81;;;18.35;100.00
4586;BME280;2305;50.118;8.952;2023-05-21T06:36:23;100262.28;;;18.39;100.00
4586;BME280;2305;50.118;8.952;2023-05-21T06:38:59;100257.56;;;18.49;100.00
4586;BME280;2305;50.118;8.952;2023-05-21T06:41:31;100264.88;;;18.55;100.00
4586;BME280;2305;50.118;8.952;2023-05-21T06:44:05;100261.78;;;18.66;100.00
4586;BME280;2305;50.118;8.952;2023-05-21T06:47:03;100262.56;;;18.75;100.00
4586;BME280;2305;50.118;8.952;2023-05-21T06:49:34;100265.47;;;18.88;100.00
4586;BME280;2305;50.118;8.952;2023-05-21T06:52:03;100261.72;;;18.96;100.00
4586;BME280;2305;50.118;8.952;2023-05-21T06:54:35;100264.59;;;19.09;100.00
4586;BME280;2305;50.118;8.952;2023-05-21T06:57:05;100257.47;;;19.24;100.00
4586;BME280;2305;50.118;8.952;2023-05-21T06:59:33;100264.06;;;19.36;100.00
4586;BME280;2305;50.118;8.952;2023-05-21T07:02:07;100255.84;;;19.52;100.00
4586;BME280;2305;50.118;8.952;2023-05-21T07:04:35;100253.94;;;19.61;100.00
4586;BME280;2305;50.118;8.952;2023-05-21T07:07:05;100256.31;;;19.70;100.00
4586;BME280;2305;50.118;8.952;2023-05-21T07:09:34;100260.19;;;19.82;100.00
4586;BME280;2305;50.118;8.952;2023-05-21T07:12:02;100258.03;;;19.92;100.00
4586;BME280;2305;50.118;8.952;2023-05-21T07:14:36;100253.25;;;20.02;100.00
4586;BME280;2305;50.118;8.952;2023-05-21T07:17:09;100255.91;;;20.17;100.00
4586;BME280;2305;50.118;8.952;2023-05-21T07:19:38;100250.94;;;20.28;100.00
4586;BME280;2305;50.118;8.952;2023-05-21T07:22:07;100251.44;;;20.38;100.00
4586;BME280;2305;50.118;8.952;2023-05-21T07:24:38;100253.53;;;20.43;100.00
4586;BME280;2305;50.118;8.952;2023-05-21T07:27:09;100247.44;;;20.49;100.00
4586;BME280;2305;50.118;8.952;2023-05-21T07:29:52;100251.19;;;20.54;100.00
4586;BME280;2305;50.118;8.952;2023-05-21T07:32:22;100245.09;;;20.60;100.00
4586;BME280;2305;50.118;8.952;2023-05-21T07:34:58;100243.31;;;20.67;100.00
4586;BME280;2305;50.118;8.952;2023-05-21T07:37:31;100248.06;;;20.72;100.00
4586;BME280;2305;50.118;8.952;2023-05-21T07:40:00;100243.78;;;20.77;100.00
4586;BME280;2305;50.118;8.952;2023-05-21T07:42:31;100240.56;;;20.82;100.00
4586;BME280;2305;50.118;8.952;2023-05-21T07:45:00;100239.13;;;20.86;100.00
4586;BME280;2305;50.118;8.952;2023-05-21T07:47:37;100244.16;;;20.89;100.00
4586;BME280;2305;50.118;8.952;2023-05-21T07:50:07;100243.13;;;20.90;100.00
4586;BME280;2305;50.118;8.952;2023-05-21T07:52:36;100243.59;;;20.93;100.00
4586;BME280;2305;50.118;8.952;2023-05-21T07:55:05;100239.69;;;20.96;100.00
4586;BME280;2305;50.118;8.952;2023-05-21T07:57:37;100236.63;;;20.99;100.00
4586;BME280;2305;50.118;8.952;2023-05-21T08:00:14;100236.44;;;21.00;100.00
4586;BME280;2305;50.118;8.952;2023-05-21T08:02:52;100236.47;;;21.07;100.00
4586;BME280;2305;50.118;8.952;2023-05-21T08:05:23;100239.16;;;21.07;100.00
4586;BME280;2305;50.118;8.952;2023-05-21T08:07:52;100240.00;;;21.07;100.00
4586;BME280;2305;50.118;8.952;2023-05-21T08:10:21;100232.56;;;21.09;100.00
4586;BME280;2305;50.118;8.952;2023-05-21T08:12:51;100235.09;;;21.17;100.00
4586;BME280;2305;50.118;8.952;2023-05-21T08:15:20;100238.22;;;21.21;100.00
4586;BME280;2305;50.118;8.952;2023-05-21T08:17:52;100238.84;;;21.23;100.00
4586;BME280;2305;50.118;8.952;2023-05-21T08:20:21;100235.56;;;21.27;100.00
4586;BME280;2305;50.118;8.952;2023-05-21T08:22:49;100235.84;;;21.32;100.00
4586;BME280;2305;50.118;8.952;2023-05-21T08:25:17;100237.72;;;21.38;100.00
4586;BME280;2305;50.118;8.952;2023-05-21T08:27:46;100235.75;;;21.47;100.00
4586;BME280;2305;50.118;8.952;2023-05-21T08:30:16;100232.91;;;21.55;100.00
4586;BME280;2305;50.118;8.952;2023-05-21T08:32:46;100233.34;;;21.65;100.00
4586;BME280;2305;50.118;8.952;2023-05-21T08:35:21;100227.66;;;21.74;100.00
4586;BME280;2305;50.118;8.952;2023-05-21T08:37:57;100218.03;;;21.86;100.00
4586;BME280;2305;50.118;8.952;2023-05-21T08:40:44;100221.78;;;21.98;100.00
4586;BME280;2305;50.118;8.952;2023-05-21T08:43:13;100220.38;;;22.09;100.00
4586;BME280;2305;50.118;8.952;2023-05-21T08:45:52;100220.66;;;22.20;100.00
4586;BME280;2305;50.118;8.952;2023-05-21T08:48:41;100210.75;;;22.34;100.00
4586;BME280;2305;50.118;8.952;2023-05-21T08:51:11;100210.59;;;22.48;100.00
4586;BME280;2305;50.118;8.952;2023-05-21T08:53:45;100211.28;;;22.63;100.00
4586;BME280;2305;50.118;8.952;2023-05-21T08:56:18;100213.31;;;22.74;100.00
4586;BME280;2305;50.118;8.952;2023-05-21T08:58:52;100210.44;;;22.82;100.00
4586;BME280;2305;50.118;8.952;2023-05-21T09:01:23;100208.56;;;22.89;100.00
4586;BME280;2305;50.118;8.952;2023-05-21T09:04:02;100208.59;;;22.96;100.00
4586;BME280;2305;50.118;8.952;2023-05-21T09:06:48;100210.22;;;23.03;100.00
4586;BME280;2305;50.118;8.952;2023-05-21T09:09:32;100215.00;;;23.14;100.00
4586;BME280;2305;50.118;8.952;2023-05-21T09:12:01;100208.59;;;23.22;100.00
4586;BME280;2305;50.118;8.952;2023-05-21T09:14:32;100213.16;;;23.34;100.00
4586;BME280;2305;50.118;8.952;2023-05-21T09:17:12;100212.47;;;23.45;100.00
4586;BME280;2305;50.118;8.952;2023-05-21T09:20:09;100211.00;;;23.56;100.00
4586;BME280;2305;50.118;8.952;2023-05-21T09:22:44;100210.56;;;23.65;100.00
4586;BME280;2305;50.118;8.952;2023-05-21T09:25:16;100207.00;;;23.78;100.00
4586;BME280;2305;50.118;8.952;2023-05-21T09:27:44;100208.84;;;23.90;100.00
4586;BME280;2305;50.118;8.952;2023-05-21T09:30:15;100197.41;;;24.01;100.00
4586;BME280;2305;50.118;8.952;2023-05-21T09:33:03;100205.47;;;24.08;100.00
4586;BME280;2305;50.118;8.952;2023-05-21T09:35:31;100204.22;;;24.10;100.00
4586;BME280;2305;50.118;8.952;2023-05-21T09:38:07;100209.19;;;24.13;100.00
4586;BME280;2305;50.118;8.952;2023-05-21T09:40:43;100211.03;;;24.13;100.00
4586;BME280;2305;50.118;8.952;2023-05-21T09:43:17;100205.44;;;24.14;100.00
4586;BME280;2305;50.118;8.952;2023-05-21T09:45:50;100210.44;;;24.11;100.00
4586;BME280;2305;50.118;8.952;2023-05-21T09:48:32;100200.91;;;24.08;100.00
4586;BME280;2305;50.118;8.952;2023-05-21T09:51:12;100205.47;;;24.08;100.00
4586;BME280;2305;50.118;8.952;2023-05-21T09:53:50;100210.00;;;24.14;100.00
4586;BME280;2305;50.118;8.952;2023-05-21T09:56:23;100202.09;;;24.19;100.00
4586;BME280;2305;50.118;8.952;2023-05-21T09:58:52;100205.38;;;24.27;100.00
4586;BME280;2305;50.118;8.952;2023-05-21T10:01:22;100202.84;;;24.32;100.00
4586;BME280;2305;50.118;8.952;2023-05-21T10:03:54;100203.41;;;24.40;100.00
4586;BME280;2305;50.118;8.952;2023-05-21T10:06:27;100206.50;;;24.44;100.00
4586;BME280;2305;50.118;8.952;2023-05-21T10:09:00;100200.28;;;24.43;100.00
4586;BME280;2305;50.118;8.952;2023-05-21T10:11:33;100198.03;;;24.40;100.00
4586;BME280;2305;50.118;8.952;2023-05-21T10:14:04;100187.84;;;24.42;100.00
4586;BME280;2305;50.118;8.952;2023-05-21T10:16:35;100197.97;;;24.47;100.00
4586;BME280;2305;50.118;8.952;2023-05-21T10:19:04;100186.75;;;24.56;100.00
4586;BME280;2305;50.118;8.952;2023-05-21T10:21:37;100191.84;;;24.71;100.00
4586;BME280;2305;50.118;8.952;2023-05-21T10:24:08;100182.41;;;24.86;100.00
4586;BME280;2305;50.118;8.952;2023-05-21T10:26:38;100178.91;;;25.04;100.00
4586;BME280;2305;50.118;8.952;2023-05-21T10:29:11;100177.50;;;25.19;100.00
4586;BME280;2305;50.118;8.952;2023-05-21T10:31:45;100170.91;;;25.40;100.00
4586;BME280;2305;50.118;8.952;2023-05-21T10:34:18;100175.84;;;25.61;100.00
4586;BME280;2305;50.118;8.952;2023-05-21T10:36:49;100163.41;;;25.78;100.00
4586;BME280;2305;50.118;8.952;2023-05-21T10:39:21;100165.34;;;25.89;100.00
4586;BME280;2305;50.118;8.952;2023-05-21T10:42:00;100157.84;;;25.91;100.00
4586;BME280;2305;50.118;8.952;2023-05-21T10:44:39;100167.28;;;25.82;100.00
4586;BME280;2305;50.118;8.952;2023-05-21T10:47:29;100165.03;;;25.79;100.00
4586;BME280;2305;50.118;8.952;2023-05-21T10:50:23;100157.53;;;25.81;100.00
4586;BME280;2305;50.118;8.952;2023-05-21T10:53:04;100161.75;;;25.77;100.00
4586;BME280;2305;50.118;8.952;2023-05-21T10:55:47;100149.91;;;25.78;100.00
4586;BME280;2305;50.118;8.952;2023-05-21T10:58:39;100147.53;;;25.99;100.00
4586;BME280;2305;50.118;8.952;2023-05-21T11:01:13;100141.38;;;26.10;95.47
4586;BME280;2305;50.118;8.952;2023-05-21T11:03:45;100143.44;;;26.38;98.96
4586;BME280;2305;50.118;8.952;2023-05-21T11:06:22;100142.03;;;26.65;93.13
4586;BME280;2305;50.118;8.952;2023-05-21T11:08:54;100144.28;;;26.91;86.39
4586;BME280;2305;50.118;8.952;2023-05-21T11:11:43;100143.00;;;27.05;85.05
4586;BME280;2305;50.118;8.952;2023-05-21T11:14:26;100152.19;;;27.15;79.23
4586;BME280;2305;50.118;8.952;2023-05-21T11:16:54;100145.25;;;27.19;81.47
4586;BME280;2305;50.118;8.952;2023-05-21T11:19:33;100144.53;;;27.24;84.28
4586;BME280;2305;50.118;8.952;2023-05-21T11:22:19;100139.47;;;27.27;80.49
4586;BME280;2305;50.118;8.952;2023-05-21T11:24:49;100143.47;;;27.36;84.08
4586;BME280;2305;50.118;8.952;2023-05-21T11:27:31;100139.88;;;27.59;83.57
4586;BME280;2305;50.118;8.952;2023-05-21T11:30:05;100134.78;;;27.85;76.08
4586;BME280;2305;50.118;8.952;2023-05-21T11:32:36;100129.28;;;28.08;79.32
4586;BME280;2305;50.118;8.952;2023-05-21T11:35:06;100129.88;;;28.27;77.37
4586;BME280;2305;50.118;8.952;2023-05-21T11:37:35;100127.47;;;28.42;77.46
4586;BME280;2305;50.118;8.952;2023-05-21T11:40:32;100124.03;;;28.63;75.37
4586;BME280;2305;50.118;8.952;2023-05-21T11:43:03;100128.47;;;28.85;73.94
4586;BME280;2305;50.118;8.952;2023-05-21T11:45:31;100133.25;;;28.95;74.23
4586;BME280;2305;50.118;8.952;2023-05-21T11:48:00;100135.03;;;29.06;76.57
4586;BME280;2305;50.118;8.952;2023-05-21T11:50:29;100139.72;;;29.10;75.44
4586;BME280;2305;50.118;8.952;2023-05-21T11:53:03;100123.94;;;29.07;70.86
4586;BME280;2305;50.118;8.952;2023-05-21T11:55:36;100130.03;;;29.14;72.74
4586;BME280;2305;50.118;8.952;2023-05-21T11:58:13;100131.41;;;29.17;73.40
4586;BME280;2305;50.118;8.952;2023-05-21T12:00:42;100128.94;;;29.15;66.92
4586;BME280;2305;50.118;8.952;2023-05-21T12:03:12;100136.13;;;29.05;68.78
4586;BME280;2305;50.118;8.952;2023-05-21T12:05:44;100133.31;;;29.00;69.87
4586;BME280;2305;50.118;8.952;2023-05-21T12:08:20;100132.53;;;28.99;70.16
4586;BME280;2305;50.118;8.952;2023-05-21T12:10:54;100133.84;;;28.97;67.88
4586;BME280;2305;50.118;8.952;2023-05-21T12:13:24;100141.84;;;28.92;70.74
4586;BME280;2305;50.118;8.952;2023-05-21T12:15:53;100135.34;;;28.93;67.16
4586;BME280;2305;50.118;8.952;2023-05-21T12:18:22;100137.13;;;28.99;71.09
4586;BME280;2305;50.118;8.952;2023-05-21T12:20:50;100135.56;;;29.03;68.71
4586;BME280;2305;50.118;8.952;2023-05-21T12:23:19;100141.69;;;28.98;70.66
4586;BME280;2305;50.118;8.952;2023-05-21T12:25:47;100141.22;;;29.01;73.49
4586;BME280;2305;50.118;8.952;2023-05-21T12:28:20;100145.75;;;28.96;72.21
4586;BME280;2305;50.118;8.952;2023-05-21T12:30:55;100148.25;;;28.86;72.64
4586;BME280;2305;50.118;8.952;2023-05-21T12:33:32;100150.31;;;28.62;73.47
4586;BME280;2305;50.118;8.952;2023-05-21T12:36:04;100147.13;;;28.49;76.52
4586;BME280;2305;50.118;8.952;2023-05-21T12:38:32;100146.38;;;28.53;77.70
4586;BME280;2305;50.118;8.952;2023-05-21T12:41:03;100147.28;;;28.42;74.08
4586;BME280;2305;50.118;8.952;2023-05-21T12:43:31;100143.91;;;28.35;73.68
4586;BME280;2305;50.118;8.952;2023-05-21T12:46:01;100135.84;;;28.12;73.70
4586;BME280;2305;50.118;8.952;2023-05-21T12:48:29;100141.34;;;28.17;74.13
4586;BME280;2305;50.118;8.952;2023-05-21T12:50:57;100149.09;;;28.25;77.06
4586;BME280;2305;50.118;8.952;2023-05-21T12:53:35;100149.81;;;28.49;76.29
4586;BME280;2305;50.118;8.952;2023-05-21T12:56:08;100149.59;;;28.67;74.28
4586;BME280;2305;50.118;8.952;2023-05-21T12:58:37;100144.47;;;28.87;73.36
4586;BME280;2305;50.118;8.952;2023-05-21T13:01:07;100148.09;;;29.09;72.03
4586;BME280;2305;50.118;8.952;2023-05-21T13:03:40;100141.69;;;29.15;75.77
4586;BME280;2305;50.118;8.952;2023-05-21T13:06:12;100140.59;;;29.16;70.04
4586;BME280;2305;50.118;8.952;2023-05-21T13:08:40;100130.59;;;29.16;68.72
4586;BME280;2305;50.118;8.952;2023-05-21T13:11:14;100130.66;;;29.21;66.57
4586;BME280;2305;50.118;8.952;2023-05-21T13:13:45;100134.50;;;29.25;64.64
4586;BME280;2305;50.118;8.952;2023-05-21T13:16:14;100138.13;;;29.31;64.82
4586;BME280;2305;50.118;8.952;2023-05-21T13:18:43;100135.97;;;29.33;63.14
4586;BME280;2305;50.118;8.952;2023-05-21T13:21:17;100133.66;;;29.41;68.53
4586;BME280;2305;50.118;8.952;2023-05-21T13:23:45;100132.81;;;29.57;67.40
4586;BME280;2305;50.118;8.952;2023-05-21T13:26:13;100130.53;;;29.71;64.82
4586;BME280;2305;50.118;8.952;2023-05-21T13:28:42;100129.50;;;29.98;66.66